Overview Statistics Trail Chart Weather Telemetry Raw packets
 

This is the latest recevied weather packets stored in our database for station/object HS3MXC-2. If no packets are shown the sender has not sent any weather packets the latest 10 day(s).

<< 41 42 43 44 45 46 47 >>
Time Temp. Humidity Pressure Rain* Wind** Luminosity Snow
1777345448 26.11° C 49% 996.3 hPa - - - -
1777345140 25.56° C 46% 996.4 hPa - - - -
1777344832 25.56° C 46% 996.4 hPa - - - -
1777344525 25.56° C 46% 996.6 hPa - - - -
1777344218 25.56° C 45% 996.6 hPa - - - -
1777343912 25.56° C 46% 996.6 hPa - - - -
1777343604 25.56° C 48% 996.6 hPa - - - -
1777343297 26.11° C 49% 996.8 hPa - - - -
1777342990 26.11° C 49% 996.8 hPa - - - -
1777342371 25.56° C 45% 996.9 hPa - - - -
1777342064 25.56° C 45% 996.9 hPa - - - -
1777341757 25.56° C 46% 997 hPa - - - -
1777341451 25.56° C 47% 997 hPa - - - -
1777340835 26.11° C 51% 996.9 hPa - - - -
1777340528 26.67° C 54% 996.8 hPa - - - -
1777340221 27.22° C 59% 996.9 hPa - - - -
1777339913 28.33° C 65% 996.9 hPa - - - -
1777339606 30° C 70% 996.9 hPa - - - -
1777339300 29.44° C 70% 996.9 hPa - - - -
1777338992 29.44° C 69% 996.8 hPa - - - -
1777338686 29.44° C 69% 996.9 hPa - - - -
1777338378 29.44° C 70% 996.8 hPa - - - -
1777338069 29.44° C 70% 996.8 hPa - - - -
1777337741 29.44° C 70% 996.7 hPa - - - -
1777337434 29.44° C 70% 996.8 hPa - - - -

* Rain since midnight (hover to see other rain measurements)
** Current wind speed in m/s (hover to see current wind gust speed)